Time;durP1;ratioP1;P1;durP2;ratioP2;P2;SDS_P1;SDS_P2;PMS_P1;PMS_P2;Temp;Humidity;BMP_temperature;BMP_pressure;BME280_temperature;BME280_humidity;BME280_pressure;Samples;Min_cycle;Max_cycle;Signal;HPM_P1;HPM_P2
2021/07/11 00:02:02;;;;;;;7.78;7.15;;;;;;;15.92;77.92;101351.09;5073791;28;20469;-69
2021/07/11 00:04:28;;;;;;;7.18;6.65;;;;;;;15.79;78.92;101353.19;5073081;28;20329;-69
2021/07/11 00:06:53;;;;;;;7.68;6.97;;;;;;;15.93;78.17;101360.72;5073499;28;20471;-69
2021/07/11 00:09:18;;;;;;;8.15;7.45;;;;;;;15.81;78.98;101366.34;5056455;28;20051;-69
2021/07/11 00:11:44;;;;;;;8.15;7.35;;;;;;;15.88;78.92;101365.25;5073840;28;20030;-70
2021/07/11 00:14:09;;;;;;;8.02;7.32;;;;;;;15.87;79.02;101355.66;5056343;28;20101;-70
2021/07/11 00:16:34;;;;;;;8.45;7.85;;;;;;;15.75;79.29;101345.38;5056523;28;20119;-70
2021/07/11 00:19:00;;;;;;;7.75;7.15;;;;;;;15.89;78.58;101359.09;5072905;28;20032;-70
2021/07/11 00:21:26;;;;;;;7.43;6.72;;;;;;;15.75;79.67;101348.03;5039244;28;20047;-69
2021/07/11 00:23:51;;;;;;;7.10;6.60;;;;;;;15.78;80.00;101346.19;5056206;28;20024;-70
2021/07/11 00:26:17;;;;;;;8.38;7.35;;;;;;;15.66;79.90;101347.38;5056400;28;20372;-70
2021/07/11 00:28:43;;;;;;;7.28;6.68;;;;;;;15.68;79.20;101345.56;5073153;28;20063;-70
2021/07/11 00:31:08;;;;;;;8.02;7.35;;;;;;;15.52;79.41;101345.09;5055741;28;20110;-69
2021/07/11 00:33:33;;;;;;;7.63;6.95;;;;;;;15.50;79.54;101349.56;5073808;28;20122;-70
2021/07/11 00:35:59;;;;;;;7.25;6.75;;;;;;;15.46;80.00;101349.66;5073693;28;20068;-70
2021/07/11 00:38:24;;;;;;;7.43;6.72;;;;;;;15.50;79.08;101351.31;5056301;28;20441;-69
2021/07/11 00:40:55;;;;;;;6.50;5.90;;;;;;;15.44;80.75;101351.50;5072660;28;20032;-69
2021/07/11 00:43:20;;;;;;;7.75;7.15;;;;;;;15.51;80.55;101343.38;5073315;28;20032;-69
2021/07/11 00:45:45;;;;;;;7.72;6.72;;;;;;;15.57;80.52;101352.91;5055774;28;20101;-69
2021/07/11 00:48:11;;;;;;;7.03;6.53;;;;;;;15.52;80.04;101339.84;5072618;28;20016;-69
2021/07/11 00:50:36;;;;;;;7.38;6.80;;;;;;;15.47;79.82;101348.78;5072609;28;20070;-69
2021/07/11 00:53:02;;;;;;;7.13;6.53;;;;;;;15.38;80.44;101342.84;5072199;28;20433;-69
2021/07/11 00:55:28;;;;;;;7.32;6.63;;;;;;;15.49;80.89;101354.88;5073700;28;20017;-69
2021/07/11 00:57:53;;;;;;;6.72;6.30;;;;;;;15.56;79.50;101361.69;5056037;28;20056;-70
2021/07/11 01:00:19;;;;;;;6.13;5.70;;;;;;;15.78;78.07;101355.84;5072783;28;20020;-69
2021/07/11 01:03:26;;;;;;;6.03;5.63;;;;;;;15.63;79.46;101352.72;5072580;28;20021;-70
2021/07/11 01:05:52;;;;;;;5.65;5.30;;;;;;;15.67;80.95;101364.06;5073623;28;20029;-69
2021/07/11 01:08:26;;;;;;;6.72;5.82;;;;;;;15.62;80.17;101366.78;5072727;28;20028;-69
2021/07/11 01:10:58;;;;;;;6.85;5.75;;;;;;;15.76;80.09;101363.81;5072728;28;20063;-69
2021/07/11 01:13:25;;;;;;;6.07;5.30;;;;;;;15.89;79.10;101356.44;5076530;28;20028;-69
2021/07/11 01:15:53;;;;;;;5.70;5.30;;;;;;;15.90;77.86;101363.47;5076685;28;20024;-70
2021/07/11 01:18:20;;;;;;;5.93;5.50;;;;;;;16.00;76.08;101364.06;5059849;28;20024;-69
2021/07/11 01:20:45;;;;;;;6.68;5.30;;;;;;;16.06;76.87;101366.53;5076639;28;20035;-70
2021/07/11 01:23:28;;;;;;;5.63;5.20;;;;;;;15.97;76.79;101365.00;5076652;28;20016;-70
2021/07/11 01:25:54;;;;;;;6.32;5.82;;;;;;;15.86;77.99;101367.09;5059705;28;20027;-69
2021/07/11 01:28:21;;;;;;;6.40;5.90;;;;;;;15.92;77.90;101366.91;5077362;28;20032;-70
2021/07/11 01:30:51;;;;;;;5.82;5.43;;;;;;;15.92;78.13;101363.41;5077361;28;20103;-70
2021/07/11 01:33:21;;;;;;;5.47;5.07;;;;;;;15.97;78.29;101362.38;5075797;28;20024;-70
2021/07/11 01:35:47;;;;;;;4.85;4.45;;;;;;;15.98;78.90;101371.13;5059647;28;20013;-70
2021/07/11 01:38:13;;;;;;;5.80;5.50;;;;;;;15.86;78.62;101359.19;5076250;28;20445;-70
2021/07/11 01:40:41;;;;;;;5.53;5.22;;;;;;;15.88;80.07;101362.63;5076306;28;20031;-69
2021/07/11 01:43:07;;;;;;;5.15;4.57;;;;;;;15.86;79.47;101359.19;5067231;28;20028;-70
2021/07/11 01:45:32;;;;;;;6.22;5.03;;;;;;;15.94;79.76;101356.31;5076057;28;20326;-69
2021/07/11 01:47:58;;;;;;;5.00;4.70;;;;;;;15.94;78.88;101356.31;5076956;28;20031;-69
2021/07/11 01:50:24;;;;;;;6.13;5.53;;;;;;;15.84;78.25;101358.34;5076219;28;20028;-69
2021/07/11 01:52:51;;;;;;;5.07;4.78;;;;;;;15.94;78.55;101356.31;5058806;28;20445;-69
2021/07/11 01:55:17;;;;;;;4.82;4.53;;;;;;;16.05;77.53;101355.09;5059075;28;20032;-69
2021/07/11 01:57:43;;;;;;;4.85;4.47;;;;;;;16.18;77.85;101355.63;5059223;28;20035;-69
2021/07/11 02:00:10;;;;;;;5.63;5.18;;;;;;;16.21;75.80;101354.66;5075554;28;20032;-69
2021/07/11 02:02:40;;;;;;;5.53;4.63;;;;;;;16.33;76.86;101356.06;5076279;28;20060;-69
2021/07/11 02:05:08;;;;;;;5.80;5.40;;;;;;;16.17;77.19;101369.72;5076444;28;20391;-69
2021/07/11 02:07:34;;;;;;;5.40;4.97;;;;;;;15.99;78.25;101365.84;5076936;28;20028;-69
2021/07/11 02:09:59;;;;;;;5.55;5.05;;;;;;;16.05;78.01;101360.38;5075350;28;20021;-70
2021/07/11 02:12:28;;;;;;;8.48;5.57;;;;;;;16.06;78.94;101363.91;5058624;28;20205;-70
2021/07/11 02:14:53;;;;;;;5.28;4.93;;;;;;;15.99;79.03;101357.06;5041786;28;20318;-70
2021/07/11 02:17:23;;;;;;;5.55;5.13;;;;;;;15.97;78.00;101362.38;5075517;28;20024;-70
2021/07/11 02:19:48;;;;;;;7.25;5.70;;;;;;;16.01;77.26;101369.28;5041791;28;20029;-70
2021/07/11 02:22:13;;;;;;;6.25;5.70;;;;;;;16.11;76.81;101363.75;5074461;28;20028;-69
2021/07/11 02:24:41;;;;;;;5.10;4.80;;;;;;;16.27;75.76;101362.41;5074677;28;20024;-70
2021/07/11 02:27:07;;;;;;;6.78;5.10;;;;;;;16.19;77.14;101357.34;5076156;28;20445;-70
2021/07/11 02:29:38;;;;;;;6.13;5.63;;;;;;;16.08;77.72;101356.78;5076317;28;20032;-69
2021/07/11 02:32:05;;;;;;;5.90;5.40;;;;;;;16.12;77.66;101354.94;5075414;28;20421;-70
2021/07/11 02:34:31;;;;;;;6.43;5.55;;;;;;;16.20;77.51;101364.34;5075283;28;20091;-69
2021/07/11 02:36:57;;;;;;;5.47;5.10;;;;;;;16.05;77.54;101360.38;5058234;28;20024;-69
2021/07/11 02:39:25;;;;;;;6.10;5.55;;;;;;;16.02;78.02;101355.19;5058453;28;20052;-70
2021/07/11 02:41:59;;;;;;;6.35;5.78;;;;;;;16.01;77.74;101350.84;5074441;28;20032;-70
2021/07/11 02:44:25;;;;;;;6.18;5.65;;;;;;;16.08;78.26;101348.03;5076158;28;20086;-70
2021/07/11 02:46:58;;;;;;;6.13;5.68;;;;;;;16.08;78.02;101358.56;5058236;28;20043;-70
2021/07/11 02:49:26;;;;;;;6.32;5.82;;;;;;;16.09;77.68;101355.00;5074953;28;20020;-70
2021/07/11 02:51:53;;;;;;;5.43;5.03;;;;;;;16.18;77.60;101354.75;5075236;28;20055;-70
2021/07/11 02:54:23;;;;;;;7.10;6.30;;;;;;;16.12;77.21;101350.53;5075314;28;20023;-69
2021/07/11 02:56:51;;;;;;;5.72;5.13;;;;;;;16.09;79.16;101347.09;5075474;28;20051;-69
2021/07/11 02:59:17;;;;;;;5.13;4.72;;;;;;;16.14;78.26;101348.72;5074357;28;20024;-70
2021/07/11 03:01:43;;;;;;;5.90;5.55;;;;;;;16.04;78.15;101353.38;5073769;28;20024;-70
2021/07/11 03:04:08;;;;;;;5.43;5.00;;;;;;;16.14;79.08;101347.84;5057467;28;20428;-70
2021/07/11 03:06:35;;;;;;;5.97;5.38;;;;;;;16.09;78.24;101345.34;5074309;28;20035;-69
2021/07/11 03:09:03;;;;;;;8.43;5.13;;;;;;;16.23;77.45;101347.56;5057737;28;20028;-70
2021/07/11 03:11:30;;;;;;;5.95;5.45;;;;;;;16.24;78.22;101346.69;5074113;28;20020;-70
2021/07/11 03:13:55;;;;;;;6.05;5.65;;;;;;;16.13;79.54;101346.09;5057548;28;20036;-69
2021/07/11 03:16:21;;;;;;;6.38;5.78;;;;;;;15.95;78.50;101343.13;5057603;28;20046;-70
2021/07/11 03:18:48;;;;;;;5.82;5.40;;;;;;;16.00;78.94;101341.19;5057501;28;20020;-70
2021/07/11 03:21:14;;;;;;;5.60;5.10;;;;;;;16.04;79.19;101342.84;5040669;28;20039;-69
2021/07/11 03:23:39;;;;;;;5.93;5.50;;;;;;;15.97;80.10;101351.81;5057169;28;20123;-70
2021/07/11 03:26:05;;;;;;;6.57;6.07;;;;;;;15.97;79.85;101345.72;5057470;28;20115;-69
2021/07/11 03:28:30;;;;;;;6.15;5.72;;;;;;;15.93;80.70;101350.19;5073620;28;20037;-69
2021/07/11 03:30:56;;;;;;;6.85;6.45;;;;;;;15.93;80.14;101342.28;5057192;28;20471;-69
2021/07/11 03:33:23;;;;;;;6.55;6.05;;;;;;;16.03;79.59;101341.13;5056352;28;20020;-69
2021/07/11 03:35:50;;;;;;;6.63;6.13;;;;;;;16.06;78.97;101345.44;5073530;28;20027;-69
2021/07/11 03:38:19;;;;;;;6.97;6.40;;;;;;;16.01;79.36;101342.94;5056836;28;20024;-69
2021/07/11 03:40:47;;;;;;;7.40;6.78;;;;;;;16.00;80.19;101350.88;5040215;28;20021;-69
2021/07/11 03:43:14;;;;;;;6.70;6.20;;;;;;;15.98;79.53;101347.41;5073274;28;20326;-70
2021/07/11 03:45:41;;;;;;;8.32;6.95;;;;;;;15.92;80.35;101353.72;5040147;28;20125;-69
2021/07/11 03:48:16;;;;;;;7.70;6.10;;;;;;;16.16;78.57;101346.03;5056957;28;20036;-70
2021/07/11 03:50:45;;;;;;;5.97;5.47;;;;;;;16.19;78.96;101345.94;5056691;28;20115;-70
2021/07/11 03:53:11;;;;;;;5.93;5.43;;;;;;;16.22;78.36;101349.38;5073036;28;20552;-69
2021/07/11 03:55:37;;;;;;;6.63;6.07;;;;;;;16.03;79.98;101337.59;5056572;28;20115;-69
2021/07/11 03:58:03;;;;;;;5.80;5.47;;;;;;;16.04;79.86;101352.53;5056882;28;20035;-70
2021/07/11 04:00:30;;;;;;;6.15;5.68;;;;;;;16.16;79.80;101343.41;5073311;28;20333;-70
2021/07/11 04:02:56;;;;;;;6.72;6.20;;;;;;;16.09;79.90;101341.84;5072991;28;20029;-69
2021/07/11 04:05:23;;;;;;;5.95;5.45;;;;;;;16.08;79.88;101348.03;5073232;28;20117;-69
2021/07/11 04:07:50;;;;;;;6.95;5.88;;;;;;;16.15;79.45;101344.31;5073586;28;20024;-69
2021/07/11 04:10:16;;;;;;;7.15;6.50;;;;;;;16.11;79.78;101350.56;5056676;28;20473;-69
2021/07/11 04:12:42;;;;;;;6.45;5.63;;;;;;;16.32;78.69;101360.50;5073574;28;20032;-69
2021/07/11 04:15:07;;;;;;;6.15;5.68;;;;;;;16.29;78.71;101350.06;5073379;28;20380;-69
2021/07/11 04:17:35;;;;;;;6.95;6.40;;;;;;;16.01;80.72;101358.75;5074003;28;20020;-69
2021/07/11 04:20:02;;;;;;;6.43;5.93;;;;;;;16.16;80.44;101356.59;5056727;28;20042;-69
2021/07/11 04:22:28;;;;;;;7.35;5.78;;;;;;;16.34;79.01;101361.28;5073321;28;20028;-69
2021/07/11 04:24:54;;;;;;;8.85;5.35;;;;;;;16.47;78.37;101363.56;5072956;28;20039;-69
2021/07/11 04:27:20;;;;;;;6.75;5.13;;;;;;;16.34;78.04;101363.94;5072809;28;20029;-69
2021/07/11 04:29:49;;;;;;;5.65;5.25;;;;;;;16.41;78.06;101361.13;5073061;28;20035;-69
2021/07/11 04:32:14;;;;;;;6.03;5.60;;;;;;;16.33;78.18;101363.97;5038754;28;20039;-69
2021/07/11 04:34:41;;;;;;;5.78;5.28;;;;;;;16.32;78.69;101362.25;5072999;28;20028;-69
2021/07/11 04:37:07;;;;;;;7.28;6.13;;;;;;;16.08;79.47;101358.56;5055908;28;20032;-70
2021/07/11 04:39:33;;;;;;;5.70;5.30;;;;;;;16.16;80.20;101361.84;5072983;28;20035;-70
2021/07/11 04:41:59;;;;;;;6.60;5.93;;;;;;;16.11;79.46;101358.47;5038833;28;20027;-70
2021/07/11 04:44:25;;;;;;;5.78;5.28;;;;;;;16.33;79.82;101363.97;5056112;28;20303;-70
2021/07/11 04:46:51;;;;;;;5.38;4.90;;;;;;;16.39;79.42;101362.03;5073139;28;20357;-69
2021/07/11 04:49:16;;;;;;;5.88;5.25;;;;;;;16.23;80.76;101368.66;5072581;28;20021;-69
2021/07/11 04:51:41;;;;;;;5.35;4.82;;;;;;;16.36;78.93;101359.50;5055382;28;20029;-69
2021/07/11 04:54:07;;;;;;;5.70;5.40;;;;;;;16.55;77.80;101359.81;5055798;28;20028;-69
2021/07/11 04:56:33;;;;;;;5.82;5.43;;;;;;;16.69;77.67;101362.00;5073619;28;20026;-70
2021/07/11 04:58:59;;;;;;;5.90;5.43;;;;;;;16.63;77.65;101362.19;5073444;28;20028;-70
2021/07/11 05:01:25;;;;;;;5.38;4.93;;;;;;;16.54;78.03;101373.03;5055194;28;20414;-70
2021/07/11 05:03:51;;;;;;;5.20;4.90;;;;;;;16.68;78.32;101373.47;5072427;28;20021;-69
2021/07/11 05:06:16;;;;;;;5.82;5.30;;;;;;;16.53;79.30;101376.56;5055422;28;20025;-69
2021/07/11 05:08:42;;;;;;;5.20;4.80;;;;;;;16.69;79.06;101377.84;5056051;28;20298;-70
2021/07/11 05:11:07;;;;;;;7.45;5.38;;;;;;;16.62;78.60;101378.06;5071773;28;20050;-69
2021/07/11 05:13:32;;;;;;;5.35;5.03;;;;;;;16.82;77.58;101380.09;5073344;28;20028;-69
2021/07/11 05:15:58;;;;;;;5.47;5.18;;;;;;;16.68;78.20;101378.72;5073309;28;20016;-69
2021/07/11 05:18:24;;;;;;;5.57;5.07;;;;;;;16.83;77.27;101384.47;5055843;28;20043;-70
2021/07/11 05:20:49;;;;;;;5.75;5.25;;;;;;;16.70;78.01;101379.56;5072127;28;20024;-70
2021/07/11 05:23:14;;;;;;;4.70;4.45;;;;;;;16.76;78.58;101378.50;5054947;28;20029;-70
2021/07/11 05:25:40;;;;;;;5.80;4.68;;;;;;;16.85;78.50;101382.63;5055245;28;20025;-70
2021/07/11 05:28:05;;;;;;;6.95;4.90;;;;;;;17.02;78.06;101388.25;5055941;28;20032;-70
2021/07/11 05:30:30;;;;;;;4.43;4.22;;;;;;;17.08;77.71;101389.81;5072999;28;20024;-70
2021/07/11 05:32:56;;;;;;;5.63;5.25;;;;;;;17.04;77.23;101383.81;5071886;28;20348;-70
2021/07/11 05:35:21;;;;;;;5.53;4.72;;;;;;;17.23;77.05;101393.75;5073421;28;20017;-69
2021/07/11 05:37:47;;;;;;;5.82;5.25;;;;;;;17.33;76.78;101391.66;5072039;28;20078;-69
2021/07/11 05:40:15;;;;;;;5.82;4.85;;;;;;;17.44;75.73;101400.09;5072213;28;20029;-69
2021/07/11 05:42:41;;;;;;;6.22;5.63;;;;;;;17.37;76.00;101391.53;5071329;28;20061;-69
2021/07/11 05:45:07;;;;;;;5.03;4.63;;;;;;;17.20;76.53;101393.84;5073216;28;20464;-69
2021/07/11 05:47:32;;;;;;;8.35;4.68;;;;;;;17.30;77.36;101392.66;5055098;28;20687;-69
2021/07/11 05:49:58;;;;;;;9.10;5.55;;;;;;;17.39;76.62;101397.59;5055388;28;20021;-70
2021/07/11 05:52:23;;;;;;;5.75;5.25;;;;;;;17.61;75.36;101396.88;5072127;28;20020;-70
2021/07/11 05:54:49;;;;;;;5.72;5.13;;;;;;;17.51;75.65;101388.41;5073151;28;20023;-69
2021/07/11 05:57:14;;;;;;;5.85;5.40;;;;;;;17.60;75.63;101395.16;5055721;28;20051;-69
2021/07/11 05:59:40;;;;;;;5.35;4.82;;;;;;;17.71;75.02;101400.06;5058950;28;20516;-70
2021/07/11 06:02:05;;;;;;;6.00;5.50;;;;;;;17.65;75.77;101395.84;5058509;28;20457;-69
2021/07/11 06:04:30;;;;;;;5.72;5.32;;;;;;;17.21;76.91;101400.88;5076542;28;20040;-69
2021/07/11 06:06:55;;;;;;;5.60;5.20;;;;;;;17.06;78.12;101397.81;5075361;28;20036;-70
2021/07/11 06:09:21;;;;;;;6.50;5.38;;;;;;;17.33;77.25;101400.47;5058508;28;20103;-69
2021/07/11 06:11:46;;;;;;;5.97;5.25;;;;;;;17.65;75.65;101400.28;5075949;28;20023;-70
2021/07/11 06:14:14;;;;;;;5.60;5.15;;;;;;;17.66;75.02;101396.72;5041785;28;20041;-70
2021/07/11 06:16:39;;;;;;;8.57;4.80;;;;;;;17.49;76.91;101395.53;5076559;28;20023;-70
2021/07/11 06:19:04;;;;;;;5.45;5.07;;;;;;;17.87;75.32;101397.75;5074228;28;20111;-69
2021/07/11 06:21:30;;;;;;;4.43;4.18;;;;;;;17.85;75.49;101396.94;5075903;28;20074;-69
2021/07/11 06:23:55;;;;;;;5.18;4.82;;;;;;;17.93;74.87;101399.34;5074613;28;20410;-69
2021/07/11 06:26:20;;;;;;;4.68;4.28;;;;;;;17.78;75.01;101396.31;5076313;28;20347;-69
2021/07/11 06:28:46;;;;;;;5.70;5.20;;;;;;;17.57;77.43;101392.59;5058616;28;20119;-69
2021/07/11 06:31:11;;;;;;;5.15;4.85;;;;;;;17.68;76.14;101389.59;5057675;28;20119;-70
2021/07/11 06:33:36;;;;;;;6.25;4.90;;;;;;;17.84;74.84;101400.50;5057069;28;20111;-70
2021/07/11 06:36:02;;;;;;;5.72;4.93;;;;;;;18.36;73.47;101398.59;5058175;28;20032;-69
2021/07/11 06:38:27;;;;;;;5.85;5.35;;;;;;;18.32;73.68;101389.06;5074766;28;20020;-70
2021/07/11 06:40:52;;;;;;;5.38;4.72;;;;;;;18.35;73.49;101398.66;5075253;28;20422;-70
2021/07/11 06:43:18;;;;;;;4.93;4.63;;;;;;;18.56;73.10;101403.16;5075398;28;20028;-70
2021/07/11 06:45:43;;;;;;;5.30;4.78;;;;;;;17.85;75.85;101403.09;5075647;28;20039;-69
2021/07/11 06:48:08;;;;;;;5.53;4.88;;;;;;;18.21;74.66;101404.47;5075007;28;20017;-69
2021/07/11 06:50:34;;;;;;;5.95;5.00;;;;;;;18.06;74.78;101401.50;5074542;28;20028;-70
2021/07/11 06:52:59;;;;;;;4.10;3.90;;;;;;;18.33;74.46;101396.09;5057467;28;20115;-70
2021/07/11 06:55:25;;;;;;;4.53;4.18;;;;;;;18.48;73.69;101401.72;5057437;28;20046;-70
2021/07/11 06:57:50;;;;;;;4.68;4.38;;;;;;;18.46;72.91;101400.91;5074828;28;20051;-69
2021/07/11 07:00:16;;;;;;;4.20;3.90;;;;;;;18.59;72.94;101407.47;5074770;28;20025;-70
2021/07/11 07:02:41;;;;;;;5.10;4.72;;;;;;;18.70;72.00;101407.91;5074106;28;20016;-70
2021/07/11 07:05:08;;;;;;;5.63;5.32;;;;;;;18.53;72.55;101415.66;5075251;28;20048;-69
2021/07/11 07:07:35;;;;;;;5.35;4.88;;;;;;;18.53;72.16;101411.22;5040606;28;20025;-70
2021/07/11 07:10:04;;;;;;;5.00;4.70;;;;;;;18.47;72.83;101405.28;5041548;28;20330;-69
2021/07/11 07:12:29;;;;;;;5.38;4.65;;;;;;;18.72;72.41;101408.72;5070023;28;20037;-70
2021/07/11 07:14:54;;;;;;;8.30;4.60;;;;;;;18.74;72.15;101404.22;5057626;28;20330;-70
2021/07/11 07:17:20;;;;;;;4.78;4.35;;;;;;;18.82;72.09;101405.72;5057296;28;20303;-70
2021/07/11 07:19:45;;;;;;;5.00;4.60;;;;;;;18.96;72.02;101402.53;5075373;28;20024;-70
2021/07/11 07:22:10;;;;;;;4.60;4.30;;;;;;;18.40;73.98;101404.66;5075202;28;20121;-70
2021/07/11 07:24:36;;;;;;;5.45;5.15;;;;;;;18.64;72.35;101401.97;5075621;28;20036;-70
2021/07/11 07:27:01;;;;;;;5.22;4.68;;;;;;;18.73;73.22;101402.50;5041000;28;20024;-70
2021/07/11 07:29:26;;;;;;;4.88;4.40;;;;;;;19.03;70.92;101410.19;5057271;28;20036;-70
2021/07/11 07:31:52;;;;;;;4.93;4.60;;;;;;;19.27;69.61;101404.81;5065889;28;20017;-70
2021/07/11 07:34:18;;;;;;;5.40;5.10;;;;;;;19.06;70.10;101406.53;5068333;28;20029;-70
2021/07/11 07:36:44;;;;;;;4.55;4.18;;;;;;;19.43;69.43;101408.53;5072745;28;20487;-70
2021/07/11 07:39:10;;;;;;;5.78;4.32;;;;;;;19.61;69.56;101408.69;5057405;28;20036;-70
2021/07/11 07:41:36;;;;;;;5.07;4.78;;;;;;;19.35;71.51;101407.13;5049675;28;20303;-70
2021/07/11 07:44:02;;;;;;;4.78;4.35;;;;;;;19.64;69.24;101405.88;5066118;28;20368;-67
2021/07/11 07:46:27;;;;;;;4.55;4.15;;;;;;;20.07;68.12;101409.34;5056988;28;20166;-70
2021/07/11 07:48:53;;;;;;;6.63;4.28;;;;;;;20.05;68.93;101405.03;5074964;28;20075;-70
2021/07/11 07:51:18;;;;;;;5.03;4.55;;;;;;;20.15;67.33;101409.00;5072597;28;20102;-71
2021/07/11 07:53:43;;;;;;;4.47;4.13;;;;;;;20.39;66.77;101399.03;5059311;28;20037;-71
2021/07/11 07:56:09;;;;;;;4.80;4.50;;;;;;;19.93;69.25;101409.09;5076676;28;20021;-71
2021/07/11 07:58:34;;;;;;;5.13;4.72;;;;;;;19.98;69.21;101399.13;5088739;28;20055;-71
2021/07/11 08:01:00;;;;;;;5.07;4.75;;;;;;;20.03;68.02;101402.47;5072344;28;20118;-71
2021/07/11 08:03:28;;;;;;;5.18;4.78;;;;;;;19.91;68.03;101403.00;5042779;28;20028;-71
2021/07/11 08:05:53;;;;;;;5.03;4.63;;;;;;;19.21;70.75;101407.69;5032319;28;20111;-70
2021/07/11 08:08:24;;;;;;;4.28;3.97;;;;;;;19.57;69.59;101407.09;5050287;28;20437;-70
2021/07/11 08:10:49;;;;;;;4.20;3.92;;;;;;;19.29;71.58;101410.88;5070924;28;20075;-70
2021/07/11 08:13:14;;;;;;;4.88;4.57;;;;;;;19.23;71.54;101411.16;5055180;28;20361;-70
2021/07/11 08:15:40;;;;;;;5.82;5.35;;;;;;;19.51;71.05;101407.34;5073774;28;20364;-70
2021/07/11 08:18:06;;;;;;;5.13;4.72;;;;;;;18.90;72.86;101403.66;5052466;28;20029;-70
2021/07/11 08:20:31;;;;;;;5.00;4.55;;;;;;;19.38;70.91;101404.34;5073057;28;20326;-70
2021/07/11 08:22:58;;;;;;;5.35;4.95;;;;;;;19.50;70.38;101397.69;5070721;28;20402;-70
2021/07/11 08:25:23;;;;;;;6.30;4.40;;;;;;;20.37;68.52;101406.22;5052029;28;20016;-70
2021/07/11 08:27:49;;;;;;;4.57;4.38;;;;;;;21.43;64.20;101402.94;5072632;28;20044;-70
2021/07/11 08:30:15;;;;;;;3.25;3.13;;;;;;;22.89;59.35;101405.84;5054174;28;20028;-70
2021/07/11 08:32:41;;;;;;;4.18;3.88;;;;;;;22.26;61.43;101404.88;5037958;28;20354;-71
2021/07/11 08:35:06;;;;;;;3.65;3.22;;;;;;;22.10;61.11;101403.03;5035623;28;20036;-70
2021/07/11 08:37:32;;;;;;;3.63;3.42;;;;;;;22.44;60.28;101400.34;5062774;28;20074;-68
2021/07/11 08:39:57;;;;;;;4.65;4.25;;;;;;;21.25;65.08;101401.19;5055478;28;20448;-70
2021/07/11 08:42:25;;;;;;;4.55;4.25;;;;;;;21.71;62.41;101408.66;5072970;28;20025;-70
2021/07/11 08:44:52;;;;;;;4.47;4.07;;;;;;;21.33;64.56;101399.00;5044839;28;20031;-71
2021/07/11 08:47:18;;;;;;;5.50;4.72;;;;;;;21.15;65.89;101410.56;5062554;28;20032;-70
2021/07/11 08:49:43;;;;;;;5.30;4.90;;;;;;;20.49;67.53;101399.50;5055184;28;20054;-70
2021/07/11 08:52:09;;;;;;;4.88;4.47;;;;;;;20.03;69.64;101406.91;5038502;28;20099;-70
2021/07/11 08:54:35;;;;;;;5.20;4.88;;;;;;;20.33;68.30;101401.13;5073177;28;20086;-70
2021/07/11 08:57:06;;;;;;;4.82;4.53;;;;;;;20.70;66.69;101397.66;5072161;28;20066;-70
2021/07/11 08:59:32;;;;;;;4.75;4.45;;;;;;;21.22;65.97;101404.00;5036618;28;20041;-70
2021/07/11 09:01:57;;;;;;;4.05;3.75;;;;;;;21.43;65.57;101402.94;5018042;28;20035;-70
2021/07/11 09:04:23;;;;;;;4.50;4.10;;;;;;;21.81;61.90;101401.06;5062426;28;20025;-71
2021/07/11 09:06:52;;;;;;;3.80;3.50;;;;;;;21.94;62.58;101392.34;5059575;28;20421;-70
2021/07/11 09:09:23;;;;;;;4.32;3.63;;;;;;;22.28;61.75;101395.00;5072756;28;20181;-71
2021/07/11 09:11:54;;;;;;;4.07;3.78;;;;;;;22.42;61.25;101395.13;5059975;28;20024;-70
2021/07/11 09:14:21;;;;;;;4.30;3.90;;;;;;;22.26;61.76;101391.56;5055100;28;20021;-71
2021/07/11 09:16:47;;;;;;;5.68;4.53;;;;;;;21.75;62.20;101391.63;5061528;28;20019;-70
2021/07/11 09:19:30;;;;;;;4.25;4.05;;;;;;;22.04;61.09;101379.41;5049845;28;20119;-70
2021/07/11 09:22:19;;;;;;;4.82;4.10;;;;;;;22.36;61.11;101382.16;5078994;28;20086;-70
2021/07/11 09:25:00;;;;;;;5.45;4.22;;;;;;;22.34;59.15;101378.72;5061490;28;20063;-70
2021/07/11 09:27:27;;;;;;;4.88;3.60;;;;;;;22.33;59.75;101376.13;5060773;28;20747;-70
2021/07/11 09:30:00;;;;;;;4.03;3.83;;;;;;;22.37;56.84;101373.22;5071214;28;20031;-70
2021/07/11 09:32:32;;;;;;;4.63;4.03;;;;;;;22.20;59.07;101381.25;5032036;28;20031;-70
2021/07/11 09:35:27;;;;;;;5.78;4.40;;;;;;;22.21;60.81;101383.84;5075628;28;20422;-72
2021/07/11 09:37:58;;;;;;;4.28;3.97;;;;;;;22.44;59.53;101374.63;5056024;28;20045;-72
2021/07/11 09:40:25;;;;;;;4.15;3.92;;;;;;;22.26;60.75;101375.59;5065914;28;20034;-72
2021/07/11 09:42:55;;;;;;;4.68;4.38;;;;;;;22.81;57.84;101379.69;5063956;28;20092;-72
2021/07/11 09:45:32;;;;;;;4.75;4.00;;;;;;;22.71;57.27;101375.81;5058553;28;20367;-73
2021/07/11 09:48:12;;;;;;;3.97;3.78;;;;;;;22.77;57.85;101376.31;5033735;28;20061;-73
2021/07/11 09:50:38;;;;;;;8.05;4.05;;;;;;;23.00;58.09;101375.94;5074969;28;20082;-71
2021/07/11 09:53:06;;;;;;;4.15;3.95;;;;;;;23.41;56.57;101370.88;5074318;28;20368;-69
2021/07/11 09:55:34;;;;;;;4.40;3.75;;;;;;;23.70;56.16;101362.09;5059361;28;20028;-74
2021/07/11 09:58:01;;;;;;;4.47;4.28;;;;;;;23.68;53.60;101367.47;5056858;28;20104;-74
2021/07/11 10:00:35;;;;;;;4.40;4.00;;;;;;;23.62;54.37;101368.72;5028577;28;20221;-72
2021/07/11 10:03:11;;;;;;;4.45;4.25;;;;;;;23.63;53.54;101370.44;5040473;28;20031;-71
2021/07/11 10:05:36;;;;;;;4.05;3.85;;;;;;;23.40;55.65;101369.16;5076099;28;20020;-75
2021/07/11 10:08:02;;;;;;;6.53;4.38;;;;;;;23.56;56.59;101370.91;5048336;28;20020;-75
2021/07/11 10:10:30;;;;;;;3.78;3.47;;;;;;;24.01;53.80;101358.41;5070349;28;20048;-75
2021/07/11 10:12:56;;;;;;;4.88;4.40;;;;;;;24.29;53.87;101356.66;5060816;28;20336;-79
2021/07/11 10:15:25;;;;;;;3.90;3.70;;;;;;;24.10;53.68;101351.63;5057351;28;20017;-74
2021/07/11 10:17:54;;;;;;;4.13;3.92;;;;;;;24.09;53.69;101352.56;5057983;28;20334;-75
2021/07/11 10:20:21;;;;;;;4.18;3.53;;;;;;;23.86;54.69;101354.84;5057773;28;20428;-75
2021/07/11 10:22:52;;;;;;;4.28;3.80;;;;;;;24.24;53.83;101359.63;5057534;28;20444;-73
2021/07/11 10:25:21;;;;;;;4.15;3.83;;;;;;;24.60;52.11;101360.88;5073266;28;20029;-75
2021/07/11 10:28:04;;;;;;;4.25;3.95;;;;;;;24.87;50.28;101361.84;5041120;28;20044;-75
2021/07/11 10:30:30;;;;;;;4.00;3.80;;;;;;;25.09;50.38;101367.50;5056751;28;20033;-71
2021/07/11 10:33:09;;;;;;;4.35;4.03;;;;;;;24.89;50.79;101359.94;5057235;28;20036;-70
2021/07/11 10:35:36;;;;;;;4.35;3.95;;;;;;;24.65;52.65;101360.63;5054812;28;20347;-76
2021/07/11 10:38:02;;;;;;;5.07;4.57;;;;;;;24.96;51.30;101366.59;5074266;28;20026;-74
2021/07/11 10:40:32;;;;;;;4.68;4.38;;;;;;;25.27;50.26;101364.53;5057468;28;20438;-75
2021/07/11 10:42:57;;;;;;;4.18;3.97;;;;;;;25.12;49.15;101358.41;5040502;28;20032;-73
2021/07/11 10:45:23;;;;;;;4.50;4.20;;;;;;;25.71;49.09;101359.78;5057051;28;20028;-78
2021/07/11 10:47:49;;;;;;;3.65;3.45;;;;;;;25.95;47.30;101365.25;5060475;28;20036;-77
2021/07/11 10:50:27;;;;;;;4.22;3.97;;;;;;;25.51;49.63;101362.03;5057895;28;20031;-74
2021/07/11 10:52:53;;;;;;;4.47;4.07;;;;;;;25.43;48.02;101370.59;5074317;28;20035;-71
2021/07/11 10:55:19;;;;;;;4.50;4.20;;;;;;;25.92;47.65;101370.78;5075142;28;20028;-72
2021/07/11 10:57:44;;;;;;;4.25;3.97;;;;;;;26.47;46.89;101356.13;5054422;28;20107;-76
2021/07/11 11:00:14;;;;;;;3.70;3.50;;;;;;;27.16;43.66;101368.94;5035237;28;20052;-76
2021/07/11 11:02:40;;;;;;;4.22;3.95;;;;;;;27.23;43.46;101363.09;5056344;28;20024;-73
2021/07/11 11:05:16;;;;;;;4.28;3.63;;;;;;;26.96;42.55;101364.22;5056489;28;20032;-72
2021/07/11 11:08:09;;;;;;;3.65;3.45;;;;;;;26.97;42.41;101358.75;5042585;28;20036;-71
2021/07/11 11:10:36;;;;;;;4.03;3.75;;;;;;;27.11;42.06;101365.75;5057212;28;20409;-75
2021/07/11 11:13:04;;;;;;;6.38;3.90;;;;;;;26.73;43.67;101363.28;5056216;28;20048;-72
2021/07/11 11:15:34;;;;;;;4.70;4.30;;;;;;;26.90;43.87;101362.88;5056194;28;20082;-74
2021/07/11 11:18:19;;;;;;;4.00;3.78;;;;;;;27.07;43.71;101360.75;5073809;28;20024;-70
2021/07/11 11:21:08;;;;;;;4.82;4.28;;;;;;;26.07;44.38;101359.03;5072114;28;20311;-71
2021/07/11 11:23:36;;;;;;;3.67;3.47;;;;;;;27.02;41.80;101362.91;5073060;28;20059;-71
2021/07/11 11:26:02;;;;;;;4.38;4.18;;;;;;;26.38;45.25;101372.91;5086455;28;20028;-74